createdAt,value
2023-01-01T00:00:51.389Z,55.33
2023-01-01T00:03:20.065Z,67.50
2023-01-01T00:05:48.685Z,80.10
2023-01-01T00:08:17.299Z,109.73
2023-01-01T00:10:46.004Z,157.53
2023-01-01T00:13:15.346Z,41.67
2023-01-01T00:15:45.322Z,34.57
2023-01-01T00:18:14.366Z,44.90
2023-01-01T00:20:43.043Z,36.73
2023-01-01T00:23:12.826Z,38.97
2023-01-01T00:25:41.806Z,29.67
2023-01-01T00:28:10.613Z,19.23
2023-01-01T00:30:41.966Z,15.97
2023-01-01T00:33:11.598Z,17.33
2023-01-01T00:35:40.251Z,17.60
2023-01-01T00:38:08.927Z,27.07
2023-01-01T00:40:37.463Z,28.33
2023-01-01T00:43:06.090Z,27.57
2023-01-01T00:45:34.761Z,24.13
2023-01-01T00:48:03.393Z,21.33
2023-01-01T00:50:33.089Z,38.83
2023-01-01T00:53:01.643Z,29.30
2023-01-01T00:55:29.948Z,30.53
2023-01-01T00:57:58.558Z,44.83
2023-01-01T01:00:27.124Z,38.07
2023-01-01T01:02:55.804Z,29.53
2023-01-01T01:05:24.482Z,38.40
2023-01-01T01:07:54.600Z,39.47
2023-01-01T01:10:23.184Z,39.83
2023-01-01T01:12:51.393Z,39.50
2023-01-01T01:15:20.898Z,39.67
2023-01-01T01:17:49.732Z,34.87
2023-01-01T01:20:18.493Z,49.47
2023-01-01T01:22:47.038Z,45.00
2023-01-01T01:25:17.036Z,44.67
2023-01-01T01:27:45.583Z,53.13
2023-01-01T01:30:14.591Z,48.97
2023-01-01T01:32:43.195Z,49.00
2023-01-01T01:35:12.491Z,52.23
2023-01-01T01:37:41.066Z,53.30
2023-01-01T01:40:11.075Z,51.73
2023-01-01T01:42:40.681Z,51.60
2023-01-01T01:45:11.318Z,63.03
2023-01-01T01:47:49.772Z,58.83
2023-01-01T01:50:28.008Z,70.00
2023-01-01T01:53:07.654Z,71.67
2023-01-01T01:55:41.022Z,81.03
2023-01-01T01:58:14.400Z,82.30
2023-01-01T02:00:42.809Z,84.80
2023-01-01T02:03:15.485Z,81.87
2023-01-01T02:05:45.269Z,78.67
2023-01-01T02:08:15.816Z,80.07
2023-01-01T02:10:44.550Z,79.30
2023-01-01T02:13:14.865Z,65.80
2023-01-01T02:15:52.935Z,53.20
2023-01-01T02:18:25.886Z,69.33
2023-01-01T02:21:01.177Z,80.57
2023-01-01T02:23:57.723Z,72.13
2023-01-01T02:26:43.181Z,87.33
2023-01-01T02:29:29.773Z,82.57
2023-01-01T02:32:06.840Z,96.27
2023-01-01T02:34:41.343Z,130.83
2023-01-01T02:37:13.267Z,125.63
2023-01-01T02:39:47.429Z,131.70
2023-01-01T02:42:17.412Z,144.80
2023-01-01T02:44:52.296Z,137.90
2023-01-01T02:47:22.337Z,140.10
2023-01-01T02:50:03.890Z,143.23
2023-01-01T02:52:50.518Z,136.07
2023-01-01T02:55:44.044Z,134.87
2023-01-01T02:58:36.206Z,139.17
2023-01-01T03:01:14.310Z,128.70
2023-01-01T03:03:57.098Z,132.80
2023-01-01T03:06:39.920Z,143.77
2023-01-01T03:09:23.271Z,127.23
2023-01-01T03:12:18.955Z,132.60
2023-01-01T03:14:57.629Z,131.23
2023-01-01T03:17:36.399Z,119.47
2023-01-01T03:20:14.638Z,124.60
2023-01-01T03:25:15.470Z,123.33
2023-01-01T03:27:49.495Z,122.13
2023-01-01T03:30:22.300Z,119.97
2023-01-01T03:33:03.757Z,106.70
2023-01-01T03:35:39.873Z,101.07
2023-01-01T03:38:15.735Z,105.80
2023-01-01T03:40:48.226Z,109.57
2023-01-01T03:43:26.361Z,101.07
2023-01-01T03:45:57.764Z,100.43
2023-01-01T03:48:27.801Z,100.07
2023-01-01T03:51:09.279Z,106.33
2023-01-01T03:53:42.407Z,101.77
2023-01-01T03:56:22.391Z,101.67
2023-01-01T03:59:01.510Z,100.03
2023-01-01T04:01:37.186Z,100.07
2023-01-01T04:04:08.965Z,92.10
2023-01-01T04:06:37.547Z,96.30
2023-01-01T04:09:10.880Z,94.03
2023-01-01T04:12:04.329Z,91.17
2023-01-01T04:14:35.535Z,87.20
2023-01-01T04:17:05.820Z,81.83
2023-01-01T04:19:36.096Z,80.63
2023-01-01T04:22:05.371Z,78.40
2023-01-01T04:24:33.973Z,73.40
2023-01-01T04:27:02.578Z,71.03
2023-01-01T04:29:30.891Z,68.20
2023-01-01T04:31:59.511Z,69.20
2023-01-01T04:34:28.157Z,69.17
2023-01-01T04:36:57.734Z,69.63
2023-01-01T04:39:25.982Z,69.13
2023-01-01T04:41:54.634Z,63.10
2023-01-01T04:44:23.208Z,66.13
2023-01-01T04:46:56.939Z,68.23
2023-01-01T04:49:28.656Z,64.77
2023-01-01T04:51:58.237Z,65.77
2023-01-01T04:54:26.887Z,62.37
2023-01-01T04:56:55.554Z,62.97
2023-01-01T04:59:24.135Z,59.63
2023-01-01T05:01:52.857Z,56.40
2023-01-01T05:04:21.527Z,54.37
2023-01-01T05:06:50.138Z,56.27
2023-01-01T05:09:20.193Z,54.83
2023-01-01T05:11:48.825Z,60.97
2023-01-01T05:14:17.391Z,57.13
2023-01-01T05:16:46.006Z,58.83
2023-01-01T05:19:14.621Z,60.63
2023-01-01T05:21:42.962Z,69.17
2023-01-01T05:24:12.342Z,64.60
2023-01-01T05:26:44.695Z,64.30
2023-01-01T05:29:17.115Z,62.20
2023-01-01T05:31:47.107Z,64.37
2023-01-01T05:34:15.884Z,63.33
2023-01-01T05:36:44.550Z,60.87
2023-01-01T05:39:14.151Z,62.73
2023-01-01T05:41:44.336Z,63.63
2023-01-01T05:44:13.077Z,63.07
2023-01-01T05:46:41.658Z,65.70
2023-01-01T05:49:12.910Z,65.47
2023-01-01T05:56:38.050Z,69.33
2023-01-01T05:59:07.729Z,70.07
2023-01-01T06:01:41.794Z,66.67
2023-01-01T06:04:15.583Z,68.73
2023-01-01T06:06:44.272Z,70.07
2023-01-01T06:09:12.751Z,68.20
2023-01-01T06:11:41.258Z,68.60
2023-01-01T06:14:10.908Z,65.40
2023-01-01T06:16:39.672Z,64.03
2023-01-01T06:19:08.323Z,65.03
2023-01-01T06:21:37.096Z,63.73
2023-01-01T06:24:06.470Z,62.07
2023-01-01T06:26:35.364Z,63.90
2023-01-01T06:29:04.353Z,59.00
2023-01-01T06:31:40.167Z,59.67
2023-01-01T06:34:09.340Z,57.17
2023-01-01T06:36:38.071Z,58.13
2023-01-01T06:39:07.177Z,59.47
2023-01-01T06:41:35.800Z,56.67
2023-01-01T06:44:05.640Z,55.77
2023-01-01T06:46:37.100Z,54.67
2023-01-01T06:49:07.903Z,52.83
2023-01-01T06:51:40.679Z,53.60
2023-01-01T06:54:09.930Z,55.07
2023-01-01T06:56:38.997Z,54.43
2023-01-01T06:59:08.405Z,56.63
2023-01-01T07:01:44.401Z,55.00
2023-01-01T07:04:16.764Z,57.47
2023-01-01T07:06:45.345Z,53.40
2023-01-01T07:09:13.965Z,52.23
2023-01-01T07:11:42.567Z,51.60
2023-01-01T07:14:11.200Z,53.10
2023-01-01T07:16:40.888Z,52.50
2023-01-01T07:19:09.411Z,52.87
2023-01-01T07:21:43.406Z,53.60
2023-01-01T07:24:14.732Z,57.10
2023-01-01T07:26:43.461Z,58.43
2023-01-01T07:29:13.343Z,60.87
2023-01-01T07:31:44.864Z,58.57
2023-01-01T07:34:17.080Z,60.43
2023-01-01T07:36:45.842Z,58.53
2023-01-01T07:39:14.493Z,65.30
2023-01-01T07:41:42.839Z,68.20
2023-01-01T07:44:12.091Z,65.20
2023-01-01T07:46:41.827Z,65.00
2023-01-01T07:49:10.497Z,75.43
2023-01-01T07:51:39.130Z,71.60
2023-01-01T07:54:08.732Z,86.17
2023-01-01T07:56:37.531Z,83.10
2023-01-01T07:59:06.281Z,84.60
2023-01-01T08:01:37.963Z,83.27
2023-01-01T08:04:07.945Z,86.63
2023-01-01T08:06:36.747Z,92.77
2023-01-01T08:09:05.444Z,96.33
2023-01-01T08:11:34.066Z,98.30
2023-01-01T08:14:02.844Z,103.03
2023-01-01T08:16:31.538Z,101.70
2023-01-01T08:19:00.216Z,98.90
2023-01-01T08:21:29.953Z,98.53
2023-01-01T08:23:58.415Z,92.83
2023-01-01T08:26:32.427Z,91.97
2023-01-01T08:29:03.700Z,87.77
2023-01-01T08:31:32.469Z,81.70
2023-01-01T08:34:01.216Z,84.20
2023-01-01T08:36:30.878Z,84.33
2023-01-01T08:38:59.242Z,79.07
2023-01-01T08:41:27.914Z,78.13
2023-01-01T08:43:56.183Z,75.20
2023-01-01T08:46:24.860Z,78.30
2023-01-01T08:48:53.335Z,75.43
2023-01-01T08:51:21.951Z,76.57
2023-01-01T08:53:51.829Z,76.33
2023-01-01T08:56:20.803Z,81.90
2023-01-01T08:58:49.719Z,69.77
2023-01-01T09:01:21.541Z,61.57
2023-01-01T09:03:50.489Z,55.27
2023-01-01T09:06:19.152Z,55.83
2023-01-01T09:08:47.950Z,52.30
2023-01-01T09:11:25.570Z,47.70
2023-01-01T09:13:55.191Z,49.10
2023-01-01T09:16:24.598Z,46.63
2023-01-01T09:18:53.315Z,45.23
2023-01-01T09:21:21.871Z,46.40
2023-01-01T09:23:50.537Z,46.83
2023-01-01T09:26:20.140Z,47.77
2023-01-01T09:28:48.707Z,41.93
2023-01-01T09:31:17.338Z,42.70
2023-01-01T09:33:45.970Z,40.80
2023-01-01T09:36:27.891Z,40.73
2023-01-01T09:38:57.987Z,39.77
2023-01-01T09:41:42.850Z,39.03
2023-01-01T09:44:30.816Z,39.17
2023-01-01T09:47:03.644Z,34.97
2023-01-01T09:49:38.043Z,36.90
2023-01-01T09:52:07.208Z,34.83
2023-01-01T09:54:41.735Z,36.20
2023-01-01T09:57:19.789Z,35.05
2023-01-01T09:59:50.804Z,37.97
2023-01-01T10:02:49.790Z,36.60
2023-01-01T10:05:35.488Z,35.97
2023-01-01T10:08:22.814Z,34.45
2023-01-01T10:11:13.281Z,33.80
2023-01-01T10:13:45.240Z,32.92
2023-01-01T10:16:24.922Z,31.58
2023-01-01T10:18:58.536Z,30.42
2023-01-01T10:21:33.401Z,29.67
2023-01-01T10:24:15.682Z,29.60
2023-01-01T10:26:44.607Z,28.27
2023-01-01T10:29:23.118Z,29.88
2023-01-01T10:31:52.166Z,30.20
2023-01-01T10:34:26.517Z,29.77
2023-01-01T10:36:58.795Z,27.25
2023-01-01T10:39:28.506Z,28.10
2023-01-01T10:41:59.559Z,29.25
2023-01-01T10:44:34.264Z,29.98
2023-01-01T10:47:26.380Z,28.73
2023-01-01T10:50:00.332Z,27.55
2023-01-01T10:52:35.457Z,26.70
2023-01-01T10:55:04.577Z,27.05
2023-01-01T10:57:37.976Z,26.48
2023-01-01T11:00:25.231Z,26.33
2023-01-01T11:03:18.665Z,24.95
2023-01-01T11:06:11.980Z,25.90
2023-01-01T11:08:48.222Z,24.52
2023-01-01T11:11:26.578Z,23.35
2023-01-01T11:13:58.454Z,23.85
2023-01-01T11:16:30.219Z,21.67
2023-01-01T11:19:06.585Z,22.33
2023-01-01T11:21:36.571Z,19.27
2023-01-01T11:24:23.983Z,20.67
2023-01-01T11:26:55.155Z,19.95
2023-01-01T11:29:30.584Z,18.98
2023-01-01T11:32:01.467Z,16.17
2023-01-01T11:34:33.756Z,16.42
2023-01-01T11:37:17.899Z,17.00
2023-01-01T11:39:52.308Z,15.30
2023-01-01T11:42:24.795Z,15.35
2023-01-01T11:44:57.173Z,16.38
2023-01-01T11:47:32.302Z,14.73
2023-01-01T11:50:19.278Z,16.10
2023-01-01T11:52:50.407Z,12.85
2023-01-01T11:55:28.130Z,10.70
2023-01-01T11:58:07.231Z,9.25
2023-01-01T12:00:38.182Z,10.82
2023-01-01T12:03:26.830Z,10.00
2023-01-01T12:06:08.035Z,9.35
2023-01-01T12:08:40.202Z,8.88
2023-01-01T12:11:20.400Z,8.88
2023-01-01T12:13:56.922Z,8.38
2023-01-01T12:16:46.382Z,8.10
2023-01-01T12:19:24.903Z,8.02
2023-01-01T12:21:58.387Z,7.72
2023-01-01T12:24:33.749Z,7.82
2023-01-01T12:27:16.942Z,7.07
2023-01-01T12:30:05.919Z,7.35
2023-01-01T12:33:09.593Z,7.00
2023-01-01T12:35:52.157Z,7.53
2023-01-01T12:38:46.587Z,7.70
2023-01-01T12:41:27.825Z,7.13
2023-01-01T12:44:06.993Z,6.35
2023-01-01T12:46:50.346Z,5.60
2023-01-01T12:49:48.511Z,6.05
2023-01-01T12:52:40.838Z,6.20
2023-01-01T12:55:46.499Z,6.05
2023-01-01T12:58:23.746Z,6.80
2023-01-01T13:00:59.892Z,6.40
2023-01-01T13:03:36.025Z,6.70
2023-01-01T13:06:07.519Z,6.43
2023-01-01T13:08:39.032Z,6.60
2023-01-01T13:11:09.496Z,6.47
2023-01-01T13:13:37.877Z,6.68
2023-01-01T13:16:07.777Z,6.65
2023-01-01T13:18:37.568Z,5.60
2023-01-01T13:21:21.335Z,6.60
2023-01-01T13:23:54.765Z,5.88
2023-01-01T13:26:42.745Z,6.10
2023-01-01T13:29:34.140Z,6.05
2023-01-01T13:32:08.959Z,6.45
2023-01-01T13:35:04.170Z,6.00
2023-01-01T13:37:47.397Z,5.80
2023-01-01T13:40:53.202Z,5.57
2023-01-01T13:43:32.125Z,6.15
2023-01-01T13:46:14.830Z,6.30
2023-01-01T13:49:26.404Z,9.80
2023-01-01T13:52:33.831Z,12.98
2023-01-01T13:55:38.935Z,14.45
2023-01-01T13:58:48.605Z,14.32
2023-01-01T14:01:45.574Z,15.30
2023-01-01T14:04:31.890Z,18.90
2023-01-01T14:07:33.010Z,14.73
2023-01-01T14:10:25.005Z,14.52
2023-01-01T14:12:55.257Z,15.10
2023-01-01T14:15:31.363Z,14.75
2023-01-01T14:18:02.815Z,14.15
2023-01-01T14:20:38.512Z,13.90
2023-01-01T14:23:11.685Z,14.57
2023-01-01T14:25:44.405Z,13.10
2023-01-01T14:28:20.056Z,12.07
2023-01-01T14:30:50.644Z,12.30
2023-01-01T14:33:27.863Z,12.65
2023-01-01T14:35:59.131Z,11.43
2023-01-01T14:38:29.193Z,12.35
2023-01-01T14:41:17.054Z,13.45
2023-01-01T14:43:48.938Z,13.05
2023-01-01T14:46:21.311Z,14.27
2023-01-01T14:48:54.024Z,14.10
2023-01-01T14:51:26.584Z,15.43
2023-01-01T14:53:59.716Z,13.98
2023-01-01T14:56:31.727Z,14.10
2023-01-01T14:59:09.203Z,14.82
2023-01-01T15:01:39.887Z,15.27
2023-01-01T15:04:26.632Z,14.23
2023-01-01T15:06:56.746Z,14.07
2023-01-01T15:09:26.164Z,15.75
2023-01-01T15:11:55.447Z,13.93
2023-01-01T15:14:38.148Z,15.13
2023-01-01T15:17:10.563Z,14.50
2023-01-01T15:19:42.169Z,15.07
2023-01-01T15:22:12.998Z,18.73
2023-01-01T15:24:41.656Z,15.95
2023-01-01T15:27:25.527Z,14.13
2023-01-01T15:29:56.560Z,14.73
2023-01-01T15:32:31.139Z,14.48
2023-01-01T15:35:01.890Z,14.98
2023-01-01T15:37:35.266Z,15.15
2023-01-01T15:40:34.724Z,15.68
2023-01-01T15:43:22.035Z,15.85
2023-01-01T15:46:00.142Z,14.90
2023-01-01T15:48:37.483Z,15.88
2023-01-01T15:51:16.380Z,15.73
2023-01-01T15:53:57.668Z,17.60
2023-01-01T15:56:29.744Z,18.17
2023-01-01T15:59:08.697Z,17.50
2023-01-01T16:01:40.550Z,17.10
2023-01-01T16:04:20.636Z,17.30
2023-01-01T16:06:55.429Z,17.50
2023-01-01T16:09:24.202Z,18.20
2023-01-01T16:11:54.355Z,18.07
2023-01-01T16:14:23.068Z,17.80
2023-01-01T16:16:57.370Z,17.00
2023-01-01T16:19:27.990Z,16.93
2023-01-01T16:21:56.765Z,16.03
2023-01-01T16:24:25.357Z,15.70
2023-01-01T16:26:54.335Z,15.43
2023-01-01T16:29:22.610Z,16.17
2023-01-01T16:31:52.840Z,16.47
2023-01-01T16:34:21.524Z,16.67
2023-01-01T16:36:51.659Z,15.90
2023-01-01T16:39:20.187Z,14.87
2023-01-01T16:41:48.734Z,15.13
2023-01-01T16:44:17.673Z,14.60
2023-01-01T16:46:46.840Z,15.07
2023-01-01T16:49:15.481Z,13.83
2023-01-01T16:51:45.331Z,13.37
2023-01-01T16:54:15.821Z,13.63
2023-01-01T16:56:44.471Z,12.83
2023-01-01T16:59:15.213Z,12.37
2023-01-01T17:01:44.823Z,13.00
2023-01-01T17:04:14.106Z,12.63
2023-01-01T17:06:42.753Z,12.20
2023-01-01T17:09:11.062Z,12.80
2023-01-01T17:11:41.411Z,12.97
2023-01-01T17:14:12.672Z,11.93
2023-01-01T17:16:41.353Z,11.73
2023-01-01T17:19:15.093Z,12.10
2023-01-01T17:21:45.715Z,11.77
2023-01-01T17:24:14.286Z,11.70
2023-01-01T17:26:44.007Z,10.87
2023-01-01T17:29:12.884Z,10.83
2023-01-01T17:31:41.512Z,11.43
2023-01-01T17:34:14.586Z,10.67
2023-01-01T17:36:44.619Z,10.77
2023-01-01T17:39:14.832Z,10.47
2023-01-01T17:41:46.125Z,10.17
2023-01-01T17:44:14.785Z,10.07
2023-01-01T17:46:44.479Z,10.57
2023-01-01T17:49:13.343Z,10.10
2023-01-01T17:51:42.305Z,10.20
2023-01-01T17:54:13.729Z,10.27
2023-01-01T17:56:43.793Z,10.00
2023-01-01T17:59:12.489Z,9.43
2023-01-01T18:01:42.142Z,9.23
2023-01-01T18:04:11.389Z,10.13
2023-01-01T18:06:43.114Z,9.77
2023-01-01T18:09:15.092Z,10.10
2023-01-01T18:11:45.376Z,9.47
2023-01-01T18:14:17.320Z,9.77
2023-01-01T18:16:47.032Z,9.53
2023-01-01T18:19:15.754Z,10.33
2023-01-01T18:21:44.431Z,9.63
2023-01-01T18:24:15.475Z,9.90
2023-01-01T18:26:45.301Z,9.93
2023-01-01T18:29:13.907Z,9.37
2023-01-01T18:31:42.786Z,10.30
2023-01-01T18:34:12.257Z,10.37
2023-01-01T18:36:40.894Z,11.00
2023-01-01T18:39:16.523Z,15.33
2023-01-01T18:42:31.001Z,19.07
2023-01-01T18:45:16.186Z,13.07
2023-01-01T18:47:46.361Z,12.03
2023-01-01T18:50:26.583Z,11.47
2023-01-01T18:53:02.011Z,11.70
2023-01-01T18:55:32.358Z,12.63
2023-01-01T18:58:15.298Z,12.57
2023-01-01T19:00:44.147Z,12.47
2023-01-01T19:03:19.047Z,12.70
2023-01-01T19:05:48.607Z,12.27
2023-01-01T19:08:22.355Z,11.40
2023-01-01T19:10:53.866Z,11.83
2023-01-01T19:13:25.574Z,12.37
2023-01-01T19:15:58.628Z,11.40
2023-01-01T19:18:31.465Z,11.13
2023-01-01T19:21:14.518Z,10.80
2023-01-01T19:23:50.216Z,12.13
2023-01-01T19:26:26.759Z,9.80
2023-01-01T19:28:58.113Z,8.90
2023-01-01T19:31:26.808Z,8.43
2023-01-01T19:33:55.437Z,8.80
2023-01-01T19:36:24.043Z,8.77
2023-01-01T19:38:52.606Z,8.90
2023-01-01T19:41:20.996Z,8.60
2023-01-01T19:43:49.686Z,8.60
2023-01-01T19:46:19.823Z,9.17
2023-01-01T19:48:49.164Z,8.63
2023-01-01T19:51:17.758Z,8.60
2023-01-01T19:53:46.408Z,8.87
2023-01-01T19:56:16.069Z,8.37
2023-01-01T19:58:45.431Z,8.20
2023-01-01T20:01:15.148Z,8.70
2023-01-01T20:04:00.493Z,8.00
2023-01-01T20:06:30.491Z,8.53
2023-01-01T20:08:58.715Z,8.77
2023-01-01T20:11:29.665Z,9.17
2023-01-01T20:13:58.429Z,8.83
2023-01-01T20:16:27.074Z,8.70
2023-01-01T20:18:56.746Z,8.90
2023-01-01T20:21:42.692Z,10.07
2023-01-01T20:24:12.100Z,8.47
2023-01-01T20:26:40.787Z,8.37
2023-01-01T20:29:21.191Z,8.37
2023-01-01T20:31:52.212Z,8.50
2023-01-01T20:34:23.432Z,8.37
2023-01-01T20:37:10.271Z,7.77
2023-01-01T20:39:39.852Z,8.30
2023-01-01T20:42:08.573Z,8.23
2023-01-01T20:44:37.306Z,8.23
2023-01-01T20:47:05.960Z,8.50
2023-01-01T20:49:36.500Z,8.40
2023-01-01T20:52:05.420Z,8.10
2023-01-01T20:54:34.018Z,8.73
2023-01-01T20:57:02.647Z,8.50
2023-01-01T20:59:36.483Z,8.40
2023-01-01T21:02:06.632Z,7.93
2023-01-01T21:04:38.806Z,7.63
2023-01-01T21:07:10.084Z,8.30
2023-01-01T21:09:38.534Z,7.67
2023-01-01T21:12:08.018Z,8.37
2023-01-01T21:14:37.009Z,9.30
2023-01-01T21:17:22.098Z,13.47
2023-01-01T21:19:54.813Z,14.23
2023-01-01T21:22:23.462Z,14.00
2023-01-01T21:24:54.753Z,14.23
2023-01-01T21:27:32.507Z,12.87
2023-01-01T21:30:01.908Z,14.03
2023-01-01T21:32:38.328Z,11.20
2023-01-01T21:35:17.508Z,9.07
2023-01-01T21:37:50.021Z,8.57
2023-01-01T21:40:39.715Z,9.23
2023-01-01T21:43:30.543Z,8.73
2023-01-01T21:46:16.315Z,10.10
2023-01-01T21:48:55.595Z,10.20
2023-01-01T21:51:28.340Z,10.00
2023-01-01T21:54:19.370Z,10.03
2023-01-01T21:56:55.809Z,9.07
2023-01-01T21:59:35.835Z,9.50
2023-01-01T22:02:31.288Z,9.93
2023-01-01T22:05:03.198Z,9.97
2023-01-01T22:10:33.775Z,9.30
2023-01-01T22:13:02.756Z,9.07
2023-01-01T22:15:41.298Z,9.50
2023-01-01T22:18:22.911Z,8.67
2023-01-01T22:20:51.644Z,9.53
2023-01-01T22:23:40.691Z,9.50
2023-01-01T22:26:27.649Z,10.07
2023-01-01T22:29:02.829Z,9.40
2023-01-01T22:31:36.444Z,10.13
2023-01-01T22:34:15.099Z,9.73
2023-01-01T22:36:43.681Z,9.40
2023-01-01T22:39:17.773Z,9.77
2023-01-01T22:41:50.187Z,9.97
2023-01-01T22:44:18.555Z,10.40
2023-01-01T22:46:47.191Z,10.80
2023-01-01T22:49:21.017Z,11.33
2023-01-01T22:51:54.568Z,10.93
2023-01-01T22:54:24.291Z,11.57
2023-01-01T22:56:52.952Z,11.37
2023-01-01T22:59:21.544Z,9.80
2023-01-01T23:01:50.307Z,11.07
2023-01-01T23:04:19.094Z,10.27
2023-01-01T23:06:47.923Z,9.27
2023-01-01T23:09:16.545Z,9.70
2023-01-01T23:11:46.677Z,10.70
2023-01-01T23:14:37.029Z,10.57
2023-01-01T23:17:07.189Z,10.17
2023-01-01T23:19:35.915Z,10.27
2023-01-01T23:22:05.149Z,9.70
2023-01-01T23:24:34.405Z,9.77
2023-01-01T23:27:04.977Z,9.87
2023-01-01T23:29:34.718Z,9.73
2023-01-01T23:32:04.260Z,9.20
2023-01-01T23:34:32.960Z,9.53
2023-01-01T23:37:01.610Z,9.67
2023-01-01T23:39:29.953Z,9.63
2023-01-01T23:41:58.771Z,7.80
2023-01-01T23:44:28.540Z,7.73
2023-01-01T23:47:00.800Z,8.80
2023-01-01T23:49:30.974Z,8.90
2023-01-01T23:52:00.407Z,8.70
2023-01-01T23:54:29.088Z,7.93
2023-01-01T23:56:57.685Z,8.13
2023-01-01T23:59:26.392Z,8.93
